sensor_id;sensor_type;location;lat;lon;timestamp;pressure;altitude;pressure_sealevel;temperature;humidity
74578;BME280;63173;49.086;33.418;2022-09-09T00:00:23;100950.97;;;10.89;70.84
74578;BME280;63173;49.086;33.418;2022-09-09T00:02:56;100950.97;;;10.89;71.45
74578;BME280;63173;49.086;33.418;2022-09-09T00:05:34;100952.31;;;10.86;73.21
74578;BME280;63173;49.086;33.418;2022-09-09T00:08:03;100959.16;;;10.84;71.21
74578;BME280;63173;49.086;33.418;2022-09-09T00:10:36;100952.63;;;10.90;71.88
74578;BME280;63173;49.086;33.418;2022-09-09T00:13:24;100953.16;;;10.92;71.22
74578;BME280;63173;49.086;33.418;2022-09-09T00:16:27;100941.47;;;11.01;71.95
74578;BME280;63173;49.086;33.418;2022-09-09T00:19:22;100952.59;;;10.95;70.85
74578;BME280;63173;49.086;33.418;2022-09-09T00:27:19;100962.66;;;10.79;71.59
74578;BME280;63173;49.086;33.418;2022-09-09T00:29:53;100963.50;;;10.75;71.08
74578;BME280;63173;49.086;33.418;2022-09-09T00:32:20;100973.25;;;10.66;71.41
74578;BME280;63173;49.086;33.418;2022-09-09T00:35:03;100965.38;;;10.64;71.91
74578;BME280;63173;49.086;33.418;2022-09-09T00:37:30;100965.13;;;10.71;71.99
74578;BME280;63173;49.086;33.418;2022-09-09T00:39:59;100971.63;;;10.65;73.01
74578;BME280;63173;49.086;33.418;2022-09-09T00:42:41;100976.50;;;10.68;71.34
74578;BME280;63173;49.086;33.418;2022-09-09T00:47:51;100978.41;;;10.62;72.89
74578;BME280;63173;49.086;33.418;2022-09-09T00:58:35;100985.44;;;10.43;72.76
74578;BME280;63173;49.086;33.418;2022-09-09T01:01:05;100996.81;;;10.20;74.02
74578;BME280;63173;49.086;33.418;2022-09-09T01:03:51;100989.75;;;10.24;73.91
74578;BME280;63173;49.086;33.418;2022-09-09T01:06:34;100985.69;;;10.21;73.92
74578;BME280;63173;49.086;33.418;2022-09-09T01:09:27;100985.41;;;10.28;72.47
74578;BME280;63173;49.086;33.418;2022-09-09T01:17:17;100988.00;;;9.93;73.58
74578;BME280;63173;49.086;33.418;2022-09-09T01:19:58;100973.88;;;9.96;73.06
74578;BME280;63173;49.086;33.418;2022-09-09T01:22:49;100983.91;;;9.90;74.55
74578;BME280;63173;49.086;33.418;2022-09-09T01:28:10;100988.84;;;9.98;72.67
74578;BME280;63173;49.086;33.418;2022-09-09T01:30:40;100982.56;;;9.93;73.50
74578;BME280;63173;49.086;33.418;2022-09-09T01:33:12;100985.22;;;9.83;75.37
74578;BME280;63173;49.086;33.418;2022-09-09T01:38:07;100980.34;;;9.80;75.33
74578;BME280;63173;49.086;33.418;2022-09-09T01:40:32;100981.16;;;9.80;74.44
74578;BME280;63173;49.086;33.418;2022-09-09T01:42:58;100983.63;;;9.82;73.83
74578;BME280;63173;49.086;33.418;2022-09-09T01:45:24;100987.06;;;9.67;75.16
74578;BME280;63173;49.086;33.418;2022-09-09T01:47:52;100991.44;;;9.73;74.64
74578;BME280;63173;49.086;33.418;2022-09-09T01:50:19;100987.66;;;9.74;73.75
74578;BME280;63173;49.086;33.418;2022-09-09T01:52:48;100988.38;;;9.60;74.38
74578;BME280;63173;49.086;33.418;2022-09-09T01:55:15;100991.88;;;9.55;75.30
74578;BME280;63173;49.086;33.418;2022-09-09T01:57:53;100994.88;;;9.59;76.05
74578;BME280;63173;49.086;33.418;2022-09-09T02:00:20;100989.53;;;9.69;74.28
74578;BME280;63173;49.086;33.418;2022-09-09T02:07:50;100995.56;;;9.39;75.83
74578;BME280;63173;49.086;33.418;2022-09-09T02:10:21;100999.34;;;9.33;76.11
74578;BME280;63173;49.086;33.418;2022-09-09T02:12:55;100999.09;;;9.34;76.20
74578;BME280;63173;49.086;33.418;2022-09-09T02:15:30;100997.22;;;9.40;76.26
74578;BME280;63173;49.086;33.418;2022-09-09T02:17:58;100995.88;;;9.42;74.52
74578;BME280;63173;49.086;33.418;2022-09-09T02:20:27;101002.66;;;9.40;75.20
74578;BME280;63173;49.086;33.418;2022-09-09T02:22:57;101003.59;;;9.24;75.03
74578;BME280;63173;49.086;33.418;2022-09-09T02:25:26;101013.16;;;9.31;75.01
74578;BME280;63173;49.086;33.418;2022-09-09T02:27:53;101022.59;;;9.24;75.31
74578;BME280;63173;49.086;33.418;2022-09-09T02:30:19;101029.19;;;9.38;74.73
74578;BME280;63173;49.086;33.418;2022-09-09T02:32:46;101020.78;;;9.34;75.08
74578;BME280;63173;49.086;33.418;2022-09-09T02:35:18;101024.13;;;9.10;75.27
74578;BME280;63173;49.086;33.418;2022-09-09T02:37:45;101019.63;;;8.94;76.62
74578;BME280;63173;49.086;33.418;2022-09-09T02:40:15;101025.97;;;9.04;77.13
74578;BME280;63173;49.086;33.418;2022-09-09T02:42:46;101025.16;;;9.04;76.30
74578;BME280;63173;49.086;33.418;2022-09-09T02:45:15;101020.84;;;9.08;76.77
74578;BME280;63173;49.086;33.418;2022-09-09T02:47:51;101022.63;;;8.92;77.00
74578;BME280;63173;49.086;33.418;2022-09-09T02:50:34;101019.94;;;8.97;76.24
74578;BME280;63173;49.086;33.418;2022-09-09T02:53:11;101029.16;;;8.96;76.70
74578;BME280;63173;49.086;33.418;2022-09-09T02:58:07;101030.94;;;8.86;76.00
74578;BME280;63173;49.086;33.418;2022-09-09T03:00:35;101038.69;;;8.72;76.83
74578;BME280;63173;49.086;33.418;2022-09-09T03:03:05;101031.63;;;8.71;76.51
74578;BME280;63173;49.086;33.418;2022-09-09T03:05:30;101029.59;;;8.83;75.80
74578;BME280;63173;49.086;33.418;2022-09-09T03:07:55;101032.28;;;8.83;76.59
74578;BME280;63173;49.086;33.418;2022-09-09T03:10:21;101032.22;;;8.78;76.24
74578;BME280;63173;49.086;33.418;2022-09-09T03:12:47;101035.50;;;8.80;76.43
74578;BME280;63173;49.086;33.418;2022-09-09T03:15:12;101033.47;;;8.66;76.96
74578;BME280;63173;49.086;33.418;2022-09-09T03:17:39;101031.88;;;8.70;76.39
74578;BME280;63173;49.086;33.418;2022-09-09T03:20:06;101031.59;;;8.66;75.73
74578;BME280;63173;49.086;33.418;2022-09-09T03:22:32;101026.22;;;8.71;76.50
74578;BME280;63173;49.086;33.418;2022-09-09T03:24:58;101033.47;;;8.66;76.24
74578;BME280;63173;49.086;33.418;2022-09-09T03:27:23;101033.22;;;8.67;76.67
74578;BME280;63173;49.086;33.418;2022-09-09T03:29:49;101036.75;;;8.68;76.17
74578;BME280;63173;49.086;33.418;2022-09-09T03:32:17;101040.53;;;8.67;76.18
74578;BME280;63173;49.086;33.418;2022-09-09T03:34:42;101037.56;;;8.68;76.04
74578;BME280;63173;49.086;33.418;2022-09-09T03:37:08;101036.84;;;8.78;75.76
74578;BME280;63173;49.086;33.418;2022-09-09T03:39:33;101046.56;;;8.74;74.62
74578;BME280;63173;49.086;33.418;2022-09-09T03:41:59;101042.03;;;8.57;75.19
74578;BME280;63173;49.086;33.418;2022-09-09T03:44:24;101040.88;;;8.48;76.85
74578;BME280;63173;49.086;33.418;2022-09-09T03:46:50;101043.09;;;8.51;75.88
74578;BME280;63173;49.086;33.418;2022-09-09T03:49:15;101054.66;;;8.69;75.91
74578;BME280;63173;49.086;33.418;2022-09-09T03:51:42;101056.78;;;8.67;75.31
74578;BME280;63173;49.086;33.418;2022-09-09T03:54:07;101066.69;;;8.56;75.93
74578;BME280;63173;49.086;33.418;2022-09-09T03:56:36;101064.84;;;8.62;75.44
74578;BME280;63173;49.086;33.418;2022-09-09T03:59:02;101062.50;;;8.43;75.45
74578;BME280;63173;49.086;33.418;2022-09-09T04:01:27;101069.75;;;8.38;76.30
74578;BME280;63173;49.086;33.418;2022-09-09T04:03:53;101066.78;;;8.39;76.02
74578;BME280;63173;49.086;33.418;2022-09-09T04:06:19;101079.09;;;8.52;76.15
74578;BME280;63173;49.086;33.418;2022-09-09T04:08:46;101080.47;;;8.54;76.09
74578;BME280;63173;49.086;33.418;2022-09-09T04:11:14;101077.88;;;8.65;74.70
74578;BME280;63173;49.086;33.418;2022-09-09T04:13:40;101076.13;;;8.80;74.83
74578;BME280;63173;49.086;33.418;2022-09-09T04:16:07;101086.00;;;8.65;75.50
74578;BME280;63173;49.086;33.418;2022-09-09T04:18:35;101073.78;;;8.62;75.08
74578;BME280;63173;49.086;33.418;2022-09-09T04:21:01;101071.09;;;8.62;74.35
74578;BME280;63173;49.086;33.418;2022-09-09T04:23:28;101083.75;;;8.57;75.27
74578;BME280;63173;49.086;33.418;2022-09-09T04:25:58;101083.38;;;8.75;75.00
74578;BME280;63173;49.086;33.418;2022-09-09T04:28:25;101076.97;;;8.81;73.63
74578;BME280;63173;49.086;33.418;2022-09-09T04:30:51;101078.59;;;8.82;74.10
74578;BME280;63173;49.086;33.418;2022-09-09T04:33:18;101088.25;;;8.73;73.64
74578;BME280;63173;49.086;33.418;2022-09-09T04:35:49;101093.00;;;8.61;75.16
74578;BME280;63173;49.086;33.418;2022-09-09T04:38:16;101102.72;;;8.57;75.51
74578;BME280;63173;49.086;33.418;2022-09-09T04:40:43;101096.13;;;8.74;74.30
74578;BME280;63173;49.086;33.418;2022-09-09T04:43:09;101098.47;;;8.92;73.10
74578;BME280;63173;49.086;33.418;2022-09-09T04:45:35;101093.91;;;8.98;73.91
74578;BME280;63173;49.086;33.418;2022-09-09T04:48:01;101094.78;;;9.03;74.08
74578;BME280;63173;49.086;33.418;2022-09-09T04:50:28;101094.72;;;9.25;72.45
74578;BME280;63173;49.086;33.418;2022-09-09T04:52:53;101101.31;;;9.07;72.56
74578;BME280;63173;49.086;33.418;2022-09-09T04:55:19;101109.00;;;9.15;73.86
74578;BME280;63173;49.086;33.418;2022-09-09T04:57:44;101103.88;;;9.19;72.39
74578;BME280;63173;49.086;33.418;2022-09-09T05:00:10;101106.13;;;9.27;72.26
74578;BME280;63173;49.086;33.418;2022-09-09T05:02:39;101098.00;;;9.32;72.65
74578;BME280;63173;49.086;33.418;2022-09-09T05:05:06;101101.66;;;9.47;72.68
74578;BME280;63173;49.086;33.418;2022-09-09T05:07:32;101102.78;;;9.52;72.62
74578;BME280;63173;49.086;33.418;2022-09-09T05:09:57;101097.13;;;9.58;72.62
74578;BME280;63173;49.086;33.418;2022-09-09T05:12:24;101097.19;;;9.63;71.18
74578;BME280;63173;49.086;33.418;2022-09-09T05:14:51;101105.97;;;9.80;71.35
74578;BME280;63173;49.086;33.418;2022-09-09T05:17:17;101104.31;;;9.79;71.87
74578;BME280;63173;49.086;33.418;2022-09-09T05:19:43;101114.97;;;9.86;70.75
74578;BME280;63173;49.086;33.418;2022-09-09T05:22:09;101115.72;;;9.81;70.58
74578;BME280;63173;49.086;33.418;2022-09-09T05:24:37;101120.06;;;9.82;71.34
74578;BME280;63173;49.086;33.418;2022-09-09T05:27:02;101111.72;;;9.94;71.22
74578;BME280;63173;49.086;33.418;2022-09-09T05:29:28;101131.69;;;10.14;70.86
74578;BME280;63173;49.086;33.418;2022-09-09T05:31:53;101124.94;;;10.17;70.48
74578;BME280;63173;49.086;33.418;2022-09-09T05:34:19;101125.00;;;10.32;70.36
74578;BME280;63173;49.086;33.418;2022-09-09T05:36:46;101128.59;;;10.43;70.49
74578;BME280;63173;49.086;33.418;2022-09-09T05:39:12;101128.59;;;10.48;69.35
74578;BME280;63173;49.086;33.418;2022-09-09T05:41:37;101131.91;;;10.60;69.41
74578;BME280;63173;49.086;33.418;2022-09-09T05:44:03;101136.81;;;10.63;69.45
74578;BME280;63173;49.086;33.418;2022-09-09T05:46:28;101140.41;;;10.78;68.74
74578;BME280;63173;49.086;33.418;2022-09-09T05:48:55;101143.16;;;10.93;67.90
74578;BME280;63173;49.086;33.418;2022-09-09T05:51:24;101154.88;;;11.09;67.54
74578;BME280;63173;49.086;33.418;2022-09-09T05:53:50;101155.97;;;11.28;67.16
74578;BME280;63173;49.086;33.418;2022-09-09T05:56:21;101153.78;;;11.30;66.82
74578;BME280;63173;49.086;33.418;2022-09-09T05:58:48;101148.38;;;11.40;67.12
74578;BME280;63173;49.086;33.418;2022-09-09T06:01:17;101146.19;;;11.62;64.93
74578;BME280;63173;49.086;33.418;2022-09-09T06:03:44;101163.66;;;11.76;64.66
74578;BME280;63173;49.086;33.418;2022-09-09T06:06:15;101155.47;;;11.86;65.43
74578;BME280;63173;49.086;33.418;2022-09-09T06:08:43;101158.19;;;11.91;65.63
74578;BME280;63173;49.086;33.418;2022-09-09T06:11:15;101159.78;;;12.02;64.55
74578;BME280;63173;49.086;33.418;2022-09-09T06:13:41;101152.97;;;12.00;64.28
74578;BME280;63173;49.086;33.418;2022-09-09T06:16:12;101142.03;;;12.25;63.68
74578;BME280;63173;49.086;33.418;2022-09-09T06:18:38;101143.38;;;12.38;64.35
74578;BME280;63173;49.086;33.418;2022-09-09T06:21:06;101156.94;;;12.53;63.49
74578;BME280;63173;49.086;33.418;2022-09-09T06:23:32;101157.44;;;12.60;63.37
74578;BME280;63173;49.086;33.418;2022-09-09T06:26:11;101151.38;;;12.73;63.13
74578;BME280;63173;49.086;33.418;2022-09-09T06:28:37;101155.34;;;12.95;62.26
74578;BME280;63173;49.086;33.418;2022-09-09T06:31:08;101158.84;;;13.06;61.62
74578;BME280;63173;49.086;33.418;2022-09-09T06:33:36;101156.06;;;13.16;61.40
74578;BME280;63173;49.086;33.418;2022-09-09T06:36:04;101145.81;;;13.37;60.76
74578;BME280;63173;49.086;33.418;2022-09-09T06:38:30;101145.19;;;13.50;59.95
74578;BME280;63173;49.086;33.418;2022-09-09T06:40:57;101137.69;;;13.65;59.39
74578;BME280;63173;49.086;33.418;2022-09-09T06:43:24;101137.00;;;13.78;59.47
74578;BME280;63173;49.086;33.418;2022-09-09T06:45:59;101143.06;;;14.04;58.57
74578;BME280;63173;49.086;33.418;2022-09-09T06:48:25;101136.00;;;14.22;56.92
74578;BME280;63173;49.086;33.418;2022-09-09T06:51:01;101142.09;;;14.42;57.56
74578;BME280;63173;49.086;33.418;2022-09-09T06:53:28;101134.06;;;14.51;56.93
74578;BME280;63173;49.086;33.418;2022-09-09T06:55:53;101138.00;;;14.63;56.21
74578;BME280;63173;49.086;33.418;2022-09-09T06:58:20;101139.28;;;14.89;55.38
74578;BME280;63173;49.086;33.418;2022-09-09T07:00:47;101149.94;;;14.91;54.72
74578;BME280;63173;49.086;33.418;2022-09-09T07:03:13;101149.94;;;15.28;53.24
74578;BME280;63173;49.086;33.418;2022-09-09T07:05:38;101159.03;;;15.24;53.42
74578;BME280;63173;49.086;33.418;2022-09-09T07:08:04;101163.56;;;15.52;53.21
74578;BME280;63173;49.086;33.418;2022-09-09T07:10:31;101163.91;;;15.64;52.48
74578;BME280;63173;49.086;33.418;2022-09-09T07:12:56;101153.69;;;15.69;50.84
74578;BME280;63173;49.086;33.418;2022-09-09T07:15:22;101151.13;;;15.91;50.39
74578;BME280;63173;49.086;33.418;2022-09-09T07:17:48;101154.56;;;15.97;50.37
74578;BME280;63173;49.086;33.418;2022-09-09T07:20:14;101156.22;;;16.12;49.29
74578;BME280;63173;49.086;33.418;2022-09-09T07:22:40;101155.81;;;16.05;49.23
74578;BME280;63173;49.086;33.418;2022-09-09T07:25:07;101159.56;;;16.22;48.69
74578;BME280;63173;49.086;33.418;2022-09-09T07:27:33;101159.06;;;16.34;48.34
74578;BME280;63173;49.086;33.418;2022-09-09T07:29:58;101160.59;;;16.40;48.27
74578;BME280;63173;49.086;33.418;2022-09-09T07:32:23;101156.22;;;16.25;48.74
74578;BME280;63173;49.086;33.418;2022-09-09T07:34:51;101157.19;;;16.48;47.04
74578;BME280;63173;49.086;33.418;2022-09-09T07:37:16;101156.38;;;16.61;47.79
74578;BME280;63173;49.086;33.418;2022-09-09T07:39:42;101164.06;;;16.86;46.38
74578;BME280;63173;49.086;33.418;2022-09-09T07:42:08;101158.66;;;17.30;45.27
74578;BME280;63173;49.086;33.418;2022-09-09T07:44:36;101157.28;;;17.19;45.49
74578;BME280;63173;49.086;33.418;2022-09-09T07:47:05;101155.31;;;17.33;46.08
74578;BME280;63173;49.086;33.418;2022-09-09T07:49:30;101145.72;;;17.66;44.62
74578;BME280;63173;49.086;33.418;2022-09-09T07:51:56;101141.63;;;17.42;44.79
74578;BME280;63173;49.086;33.418;2022-09-09T07:54:22;101148.09;;;17.59;44.13
74578;BME280;63173;49.086;33.418;2022-09-09T07:56:49;101147.97;;;17.64;44.50
74578;BME280;63173;49.086;33.418;2022-09-09T07:59:15;101146.53;;;17.67;44.15
74578;BME280;63173;49.086;33.418;2022-09-09T08:01:51;101138.03;;;17.77;44.46
74578;BME280;63173;49.086;33.418;2022-09-09T08:04:21;101136.53;;;17.71;44.49
74578;BME280;63173;49.086;33.418;2022-09-09T08:06:48;101136.31;;;17.90;43.57
74578;BME280;63173;49.086;33.418;2022-09-09T08:09:14;101141.84;;;18.29;43.35
74578;BME280;63173;49.086;33.418;2022-09-09T08:11:40;101141.31;;;17.43;44.43
74578;BME280;63173;49.086;33.418;2022-09-09T08:14:07;101139.69;;;18.17;42.57
74578;BME280;63173;49.086;33.418;2022-09-09T08:16:35;101150.69;;;18.17;42.66
74578;BME280;63173;49.086;33.418;2022-09-09T08:19:02;101147.44;;;18.46;42.91
74578;BME280;63173;49.086;33.418;2022-09-09T08:21:30;101144.50;;;18.90;40.95
74578;BME280;63173;49.086;33.418;2022-09-09T08:23:58;101154.53;;;19.03;40.74
74578;BME280;63173;49.086;33.418;2022-09-09T08:26:29;101144.03;;;19.22;39.94
74578;BME280;63173;49.086;33.418;2022-09-09T08:28:57;101146.13;;;19.25;40.21
74578;BME280;63173;49.086;33.418;2022-09-09T08:31:24;101142.09;;;19.48;40.02
74578;BME280;63173;49.086;33.418;2022-09-09T08:33:50;101138.38;;;19.19;40.25
74578;BME280;63173;49.086;33.418;2022-09-09T08:36:18;101131.22;;;19.09;40.07
74578;BME280;63173;49.086;33.418;2022-09-09T08:38:47;101133.41;;;18.64;40.96
74578;BME280;63173;49.086;33.418;2022-09-09T08:43:45;101128.13;;;18.94;40.91
74578;BME280;63173;49.086;33.418;2022-09-09T08:51:53;101119.06;;;19.61;39.41
74578;BME280;63173;49.086;33.418;2022-09-09T08:54:21;101106.22;;;19.83;39.33
74578;BME280;63173;49.086;33.418;2022-09-09T08:56:48;101111.78;;;19.48;38.93
74578;BME280;63173;49.086;33.418;2022-09-09T08:59:17;101113.69;;;19.74;39.07
74578;BME280;63173;49.086;33.418;2022-09-09T09:04:48;101105.81;;;20.10;38.77
74578;BME280;63173;49.086;33.418;2022-09-09T09:12:56;101108.22;;;19.14;39.75
74578;BME280;63173;49.086;33.418;2022-09-09T09:15:28;101115.16;;;18.77;40.57
74578;BME280;63173;49.086;33.418;2022-09-09T09:17:55;101118.41;;;19.64;38.65
74578;BME280;63173;49.086;33.418;2022-09-09T09:20:35;101112.75;;;20.24;36.92
74578;BME280;63173;49.086;33.418;2022-09-09T09:23:05;101106.31;;;20.70;37.30
74578;BME280;63173;49.086;33.418;2022-09-09T09:25:35;101097.09;;;20.87;36.41
74578;BME280;63173;49.086;33.418;2022-09-09T09:28:12;101097.97;;;20.79;36.67
74578;BME280;63173;49.086;33.418;2022-09-09T09:31:04;101110.00;;;21.24;36.62
74578;BME280;63173;49.086;33.418;2022-09-09T09:36:07;101110.81;;;21.04;35.81
74578;BME280;63173;49.086;33.418;2022-09-09T09:38:34;101109.84;;;20.50;35.94
74578;BME280;63173;49.086;33.418;2022-09-09T09:41:01;101121.03;;;21.24;35.39
74578;BME280;63173;49.086;33.418;2022-09-09T09:43:35;101124.88;;;20.61;35.81
74578;BME280;63173;49.086;33.418;2022-09-09T09:46:00;101126.53;;;21.12;36.12
74578;BME280;63173;49.086;33.418;2022-09-09T09:48:28;101125.06;;;21.47;35.62
74578;BME280;63173;49.086;33.418;2022-09-09T09:50:59;101123.53;;;21.37;34.80
74578;BME280;63173;49.086;33.418;2022-09-09T09:53:29;101126.09;;;21.75;35.14
74578;BME280;63173;49.086;33.418;2022-09-09T09:56:00;101116.72;;;21.14;34.50
74578;BME280;63173;49.086;33.418;2022-09-09T09:58:29;101109.00;;;20.58;36.01
74578;BME280;63173;49.086;33.418;2022-09-09T10:00:56;101108.94;;;20.37;36.46
74578;BME280;63173;49.086;33.418;2022-09-09T10:05:50;101109.56;;;20.72;36.11
74578;BME280;63173;49.086;33.418;2022-09-09T10:08:17;101114.97;;;20.89;35.67
74578;BME280;63173;49.086;33.418;2022-09-09T10:13:27;101113.34;;;20.88;34.72
74578;BME280;63173;49.086;33.418;2022-09-09T10:25:03;101115.78;;;21.51;34.07
74578;BME280;63173;49.086;33.418;2022-09-09T10:33:41;101110.97;;;22.05;33.06
74578;BME280;63173;49.086;33.418;2022-09-09T10:36:20;101110.09;;;22.25;31.95
74578;BME280;63173;49.086;33.418;2022-09-09T10:41:43;101105.34;;;22.26;31.88
74578;BME280;63173;49.086;33.418;2022-09-09T10:44:25;101112.41;;;22.72;31.46
74578;BME280;63173;49.086;33.418;2022-09-09T10:47:20;101121.84;;;23.22;30.73
74578;BME280;63173;49.086;33.418;2022-09-09T10:55:56;101120.59;;;23.32;29.58
74578;BME280;63173;49.086;33.418;2022-09-09T10:58:40;101125.81;;;23.09;29.71
74578;BME280;63173;49.086;33.418;2022-09-09T11:03:43;101121.69;;;22.07;31.38
74578;BME280;63173;49.086;33.418;2022-09-09T11:06:17;101117.84;;;23.20;30.27
74578;BME280;63173;49.086;33.418;2022-09-09T11:08:45;101117.22;;;23.39;29.67
74578;BME280;63173;49.086;33.418;2022-09-09T11:11:18;101117.03;;;23.19;30.28
74578;BME280;63173;49.086;33.418;2022-09-09T11:16:21;101112.31;;;24.84;28.46
74578;BME280;63173;49.086;33.418;2022-09-09T11:18:58;101119.34;;;24.16;28.64
74578;BME280;63173;49.086;33.418;2022-09-09T11:21:30;101111.94;;;24.20;28.20
74578;BME280;63173;49.086;33.418;2022-09-09T11:24:03;101116.69;;;23.76;28.87
74578;BME280;63173;49.086;33.418;2022-09-09T11:26:41;101113.31;;;23.55;28.86
74578;BME280;63173;49.086;33.418;2022-09-09T11:29:42;101104.41;;;22.10;30.36
74578;BME280;63173;49.086;33.418;2022-09-09T11:40:43;101111.66;;;24.41;27.85
74578;BME280;63173;49.086;33.418;2022-09-09T11:43:12;101112.63;;;23.30;29.54
74578;BME280;63173;49.086;33.418;2022-09-09T11:45:41;101106.81;;;23.35;29.12
74578;BME280;63173;49.086;33.418;2022-09-09T11:50:58;101088.50;;;22.43;30.75
74578;BME280;63173;49.086;33.418;2022-09-09T11:53:24;101102.66;;;24.00;29.56
74578;BME280;63173;49.086;33.418;2022-09-09T11:56:01;101104.44;;;23.93;28.60
74578;BME280;63173;49.086;33.418;2022-09-09T11:58:28;101098.41;;;24.03;28.39
74578;BME280;63173;49.086;33.418;2022-09-09T12:00:58;101090.47;;;24.67;27.97
74578;BME280;63173;49.086;33.418;2022-09-09T12:06:41;101090.19;;;25.07;27.44
74578;BME280;63173;49.086;33.418;2022-09-09T12:09:27;101083.75;;;25.22;26.60
74578;BME280;63173;49.086;33.418;2022-09-09T12:14:43;101092.53;;;22.70;29.31
74578;BME280;63173;49.086;33.418;2022-09-09T12:17:23;101088.69;;;24.44;28.42
74578;BME280;63173;49.086;33.418;2022-09-09T12:31:02;101078.09;;;24.80;26.75
74578;BME280;63173;49.086;33.418;2022-09-09T12:33:36;101087.97;;;23.84;28.64
74578;BME280;63173;49.086;33.418;2022-09-09T12:36:03;101080.56;;;23.05;29.21
74578;BME280;63173;49.086;33.418;2022-09-09T12:38:34;101079.31;;;22.63;29.91
74578;BME280;63173;49.086;33.418;2022-09-09T12:40:59;101083.34;;;23.05;30.01
74578;BME280;63173;49.086;33.418;2022-09-09T12:43:26;101078.00;;;23.68;29.16
74578;BME280;63173;49.086;33.418;2022-09-09T12:46:18;101079.38;;;23.89;29.51
74578;BME280;63173;49.086;33.418;2022-09-09T12:48:45;101075.38;;;24.34;28.38
74578;BME280;63173;49.086;33.418;2022-09-09T12:51:28;101079.50;;;24.24;28.35
74578;BME280;63173;49.086;33.418;2022-09-09T12:53:56;101081.34;;;24.51;27.62
74578;BME280;63173;49.086;33.418;2022-09-09T12:56:27;101082.59;;;24.54;26.92
74578;BME280;63173;49.086;33.418;2022-09-09T12:58:55;101076.41;;;23.98;28.07
74578;BME280;63173;49.086;33.418;2022-09-09T13:01:27;101081.47;;;23.49;27.76
74578;BME280;63173;49.086;33.418;2022-09-09T13:03:54;101073.97;;;24.08;27.33
74578;BME280;63173;49.086;33.418;2022-09-09T13:08:48;101083.34;;;23.05;28.81
74578;BME280;63173;49.086;33.418;2022-09-09T13:11:17;101079.72;;;22.53;29.84
74578;BME280;63173;49.086;33.418;2022-09-09T13:13:52;101091.09;;;23.00;29.36
74578;BME280;63173;49.086;33.418;2022-09-09T13:16:31;101086.81;;;23.42;28.52
74578;BME280;63173;49.086;33.418;2022-09-09T13:19:17;101078.25;;;22.43;29.42
74578;BME280;63173;49.086;33.418;2022-09-09T13:21:42;101067.75;;;22.25;29.43
74578;BME280;63173;49.086;33.418;2022-09-09T13:24:30;101081.56;;;22.13;30.39
74578;BME280;63173;49.086;33.418;2022-09-09T13:29:22;101073.97;;;23.50;27.72
74578;BME280;63173;49.086;33.418;2022-09-09T13:31:53;101080.47;;;23.42;27.88
74578;BME280;63173;49.086;33.418;2022-09-09T13:34:29;101078.31;;;23.23;28.34
74578;BME280;63173;49.086;33.418;2022-09-09T13:37:00;101083.34;;;23.05;28.60
74578;BME280;63173;49.086;33.418;2022-09-09T13:39:32;101084.34;;;22.37;29.38
74578;BME280;63173;49.086;33.418;2022-09-09T13:41:58;101081.28;;;23.02;29.43
74578;BME280;63173;49.086;33.418;2022-09-09T13:44:30;101086.03;;;23.57;28.46
74578;BME280;63173;49.086;33.418;2022-09-09T13:47:17;101088.75;;;23.85;27.87
74578;BME280;63173;49.086;33.418;2022-09-09T13:49:44;101095.88;;;23.55;28.21
74578;BME280;63173;49.086;33.418;2022-09-09T13:52:11;101094.66;;;23.12;28.34
74578;BME280;63173;49.086;33.418;2022-09-09T13:54:38;101092.00;;;23.04;29.27
74578;BME280;63173;49.086;33.418;2022-09-09T13:57:04;101094.94;;;22.83;29.36
74578;BME280;63173;49.086;33.418;2022-09-09T13:59:30;101092.22;;;22.35;29.37
74578;BME280;63173;49.086;33.418;2022-09-09T14:01:57;101096.91;;;21.98;30.06
74578;BME280;63173;49.086;33.418;2022-09-09T14:04:22;101097.25;;;22.09;30.01
74578;BME280;63173;49.086;33.418;2022-09-09T14:06:49;101088.25;;;22.00;30.27
74578;BME280;63173;49.086;33.418;2022-09-09T14:09:16;101086.31;;;22.00;30.52
74578;BME280;63173;49.086;33.418;2022-09-09T14:11:42;101091.28;;;22.19;30.63
74578;BME280;63173;49.086;33.418;2022-09-09T14:14:08;101102.06;;;21.55;30.75
74578;BME280;63173;49.086;33.418;2022-09-09T14:16:34;101098.38;;;21.96;31.26
74578;BME280;63173;49.086;33.418;2022-09-09T14:19:00;101104.78;;;22.08;30.93
74578;BME280;63173;49.086;33.418;2022-09-09T14:21:27;101105.09;;;22.07;31.01
74578;BME280;63173;49.086;33.418;2022-09-09T14:23:53;101107.31;;;22.13;30.70
74578;BME280;63173;49.086;33.418;2022-09-09T14:26:19;101110.09;;;22.25;30.01
74578;BME280;63173;49.086;33.418;2022-09-09T14:28:46;101112.59;;;21.74;31.05
74578;BME280;63173;49.086;33.418;2022-09-09T14:31:13;101117.53;;;21.35;31.64
74578;BME280;63173;49.086;33.418;2022-09-09T14:33:39;101111.91;;;21.77;31.96
74578;BME280;63173;49.086;33.418;2022-09-09T14:36:05;101111.44;;;21.63;31.90
74578;BME280;63173;49.086;33.418;2022-09-09T14:38:36;101115.44;;;21.65;30.80
74578;BME280;63173;49.086;33.418;2022-09-09T14:41:13;101121.72;;;21.21;32.51
74578;BME280;63173;49.086;33.418;2022-09-09T14:43:42;101125.63;;;21.20;32.56
74578;BME280;63173;49.086;33.418;2022-09-09T14:46:09;101117.03;;;21.21;32.57
74578;BME280;63173;49.086;33.418;2022-09-09T14:48:35;101120.66;;;21.13;32.45
74578;BME280;63173;49.086;33.418;2022-09-09T14:51:09;101115.69;;;20.78;33.98
74578;BME280;63173;49.086;33.418;2022-09-09T14:53:35;101118.91;;;21.09;33.57
74578;BME280;63173;49.086;33.418;2022-09-09T14:56:13;101119.81;;;20.92;32.87